createdAt,value
2023-04-18T09:08:44.947Z,94.62
2023-04-18T09:11:29.000Z,84.27
2023-04-18T09:14:10.764Z,71.06
2023-04-18T09:16:47.425Z,72.97
2023-04-18T09:19:18.992Z,64.49
2023-04-18T09:21:47.409Z,63.91
2023-04-18T09:24:26.538Z,60.26
2023-04-18T09:26:56.162Z,59.98
2023-04-18T09:29:41.830Z,57.33
2023-04-18T09:32:09.891Z,57.09
2023-04-18T09:34:42.704Z,50.58
2023-04-18T09:37:12.294Z,49.78
2023-04-18T09:39:42.719Z,48.63
2023-04-18T09:42:11.131Z,48.26
2023-04-18T09:44:57.590Z,46.97
2023-04-18T09:47:27.005Z,46.95
2023-04-18T09:49:54.602Z,48.54
2023-04-18T09:52:25.152Z,48.72
2023-04-18T09:54:58.825Z,47.44
2023-04-18T09:57:31.507Z,46.48
2023-04-18T10:00:01.941Z,46.75
2023-04-18T10:02:39.169Z,48.08
2023-04-18T10:05:08.447Z,48.51
2023-04-18T10:07:37.052Z,49.06
2023-04-18T10:10:04.712Z,49.42
2023-04-18T10:12:33.562Z,50.52
2023-04-18T10:15:01.393Z,48.64
2023-04-18T10:17:29.551Z,48.42
2023-04-18T10:20:16.531Z,46.35
2023-04-18T10:22:44.550Z,44.30
2023-04-18T10:25:11.856Z,44.80
2023-04-18T10:27:48.868Z,42.40
2023-04-18T10:30:17.096Z,44.06
2023-04-18T10:32:47.732Z,43.70
2023-04-18T10:35:15.252Z,42.26
2023-04-18T10:37:59.956Z,43.50
2023-04-18T10:40:34.773Z,44.10
2023-04-18T10:43:02.568Z,45.38
2023-04-18T10:45:33.673Z,46.19
2023-04-18T10:48:32.897Z,42.81
2023-04-18T10:51:14.229Z,42.76
2023-04-18T10:53:49.048Z,44.75
2023-04-18T10:56:16.936Z,44.43
2023-04-18T10:58:50.250Z,45.16
2023-04-18T11:01:28.619Z,45.97
2023-04-18T11:04:01.808Z,46.91
2023-04-18T11:06:30.559Z,48.22
2023-04-18T11:09:14.375Z,49.30
2023-04-18T11:11:42.604Z,48.66
2023-04-18T11:14:10.758Z,49.43
2023-04-18T11:16:41.124Z,49.30
2023-04-18T11:19:23.537Z,48.68
2023-04-18T11:21:51.981Z,48.47
2023-04-18T11:24:23.646Z,47.56
2023-04-18T11:26:56.192Z,48.71
2023-04-18T11:29:26.555Z,49.83
2023-04-18T11:31:56.879Z,49.84
2023-04-18T11:34:30.908Z,50.10
2023-04-18T11:36:58.391Z,49.54
2023-04-18T11:39:26.109Z,46.85
2023-04-18T11:41:56.587Z,44.88
2023-04-18T11:44:25.272Z,44.53
2023-04-18T11:46:53.585Z,43.25
2023-04-18T11:49:28.701Z,43.32
2023-04-18T11:51:56.621Z,45.79
2023-04-18T11:54:41.509Z,44.59
2023-04-18T11:57:29.215Z,45.02
2023-04-18T11:59:59.371Z,44.77
2023-04-18T12:02:39.898Z,45.56
2023-04-18T12:05:08.232Z,45.53
2023-04-18T12:07:44.669Z,44.88
2023-04-18T12:10:29.779Z,45.32
2023-04-18T12:13:01.300Z,46.68
2023-04-18T12:15:30.194Z,47.67
2023-04-18T12:18:00.655Z,48.00
2023-04-18T12:20:38.265Z,47.71
2023-04-18T12:23:06.283Z,48.44
2023-04-18T12:25:34.993Z,49.09
2023-04-18T12:28:04.867Z,48.67
2023-04-18T12:30:37.468Z,49.89
2023-04-18T12:33:05.300Z,49.65
2023-04-18T12:35:33.095Z,48.05
2023-04-18T12:38:02.478Z,48.49
2023-04-18T12:40:30.516Z,47.83
2023-04-18T12:42:57.751Z,47.92
2023-04-18T12:45:26.017Z,48.30
2023-04-18T12:47:53.949Z,48.98
2023-04-18T12:50:24.055Z,48.49
2023-04-18T12:52:53.680Z,47.49
2023-04-18T12:55:22.933Z,48.68
2023-04-18T12:57:56.655Z,47.16
2023-04-18T13:00:26.510Z,48.29
2023-04-18T13:02:53.970Z,47.78
2023-04-18T13:05:23.852Z,48.17
2023-04-18T13:07:58.642Z,47.77
2023-04-18T13:10:29.680Z,47.29
2023-04-18T13:12:57.231Z,47.86
2023-04-18T13:15:25.049Z,48.19
2023-04-18T13:17:52.454Z,47.40
2023-04-18T13:20:20.560Z,46.70
2023-04-18T13:22:48.172Z,46.85
2023-04-18T13:25:16.847Z,44.20
2023-04-18T13:27:46.466Z,43.92
2023-04-18T13:30:14.146Z,42.86
2023-04-18T13:32:43.059Z,42.28
2023-04-18T13:35:11.415Z,41.85
2023-04-18T13:37:39.586Z,41.83
2023-04-18T13:40:08.157Z,41.47
2023-04-18T13:42:37.288Z,40.86
2023-04-18T13:45:07.918Z,41.89
2023-04-18T13:47:35.321Z,43.98
2023-04-18T13:50:02.923Z,45.28
2023-04-18T13:52:30.329Z,45.61
2023-04-18T13:54:58.003Z,45.37
2023-04-18T13:57:25.364Z,45.53
2023-04-18T13:59:52.951Z,46.14
2023-04-18T14:02:22.881Z,46.97
2023-04-18T14:04:52.281Z,46.85
2023-04-18T14:07:19.642Z,46.99
2023-04-18T14:09:48.454Z,47.70
2023-04-18T14:12:15.983Z,47.47
2023-04-18T14:14:43.540Z,48.70
2023-04-18T14:17:10.875Z,49.55
2023-04-18T14:19:38.576Z,50.14
2023-04-18T14:22:07.378Z,50.64
2023-04-18T14:24:38.045Z,49.82
2023-04-18T14:27:10.449Z,50.84
2023-04-18T14:29:38.306Z,51.10
2023-04-18T14:32:07.201Z,51.60
2023-04-18T14:34:36.637Z,52.19
2023-04-18T14:37:05.055Z,54.12
2023-04-18T14:39:32.726Z,55.05
2023-04-18T14:41:59.987Z,54.21
2023-04-18T14:44:28.189Z,54.44
2023-04-18T14:46:55.719Z,54.75
2023-04-18T14:49:23.544Z,55.00
2023-04-18T14:51:51.082Z,55.15
2023-04-18T14:54:19.304Z,54.86
2023-04-18T14:56:46.573Z,55.84
2023-04-18T14:59:16.718Z,57.85
2023-04-18T15:01:44.616Z,58.16
2023-04-18T15:04:12.860Z,57.16
2023-04-18T15:06:42.165Z,58.71
2023-04-18T15:09:09.735Z,57.71
2023-04-18T15:11:38.528Z,56.13
2023-04-18T15:14:06.232Z,55.12
2023-04-18T15:16:35.419Z,55.03
2023-04-18T15:19:03.029Z,56.22
2023-04-18T15:21:30.357Z,55.94
2023-04-18T15:23:59.184Z,57.20
2023-04-18T15:26:27.246Z,56.12
2023-04-18T15:28:55.500Z,56.55
2023-04-18T15:31:24.072Z,56.99
2023-04-18T15:33:52.071Z,55.87
2023-04-18T15:36:19.605Z,56.63
2023-04-18T15:38:49.903Z,58.20
2023-04-18T15:41:17.158Z,58.42
2023-04-18T15:43:45.825Z,59.65
2023-04-18T15:46:13.117Z,60.54
2023-04-18T15:48:40.815Z,58.55
2023-04-18T15:51:08.403Z,58.44
2023-04-18T15:53:36.070Z,58.77
2023-04-18T15:56:04.393Z,60.64
2023-04-18T15:58:35.478Z,61.91
2023-04-18T16:01:03.530Z,66.25
2023-04-18T16:03:31.996Z,65.45
2023-04-18T16:05:59.581Z,63.87
2023-04-18T16:08:27.293Z,67.54
2023-04-18T16:10:54.669Z,70.54
2023-04-18T16:13:22.215Z,71.29
2023-04-18T16:15:49.769Z,69.45
2023-04-18T16:18:17.548Z,70.39
2023-04-18T16:20:45.056Z,68.87
2023-04-18T16:23:12.986Z,68.85
2023-04-18T16:25:40.441Z,69.69
2023-04-18T16:28:08.396Z,72.03
2023-04-18T16:30:36.091Z,70.66
2023-04-18T16:33:04.157Z,67.86
2023-04-18T16:35:32.075Z,65.60
2023-04-18T16:38:00.142Z,69.40
2023-04-18T16:40:30.739Z,71.74
2023-04-18T16:42:59.061Z,74.80
2023-04-18T16:45:26.693Z,77.10
2023-04-18T16:47:55.198Z,75.33
2023-04-18T16:50:23.081Z,78.13
2023-04-18T16:52:50.819Z,74.09
2023-04-18T16:55:18.449Z,74.72
2023-04-18T16:57:47.454Z,69.85
2023-04-18T17:00:15.257Z,65.93
2023-04-18T17:02:44.121Z,64.70
2023-04-18T17:05:12.136Z,65.66
2023-04-18T17:07:40.066Z,71.58
2023-04-18T17:10:09.963Z,71.34
2023-04-18T17:12:38.047Z,74.35
2023-04-18T17:15:05.957Z,75.81
2023-04-18T17:17:33.803Z,73.43
2023-04-18T17:20:01.556Z,75.53
2023-04-18T17:22:29.704Z,79.52
2023-04-18T17:24:57.050Z,81.77
2023-04-18T17:27:24.764Z,82.39
2023-04-18T17:29:52.066Z,84.03
2023-04-18T17:32:19.847Z,87.04
2023-04-18T17:34:47.434Z,92.39
2023-04-18T17:44:51.125Z,100.00
2023-04-18T17:47:18.799Z,100.00
2023-04-18T17:49:46.254Z,98.22
2023-04-18T17:52:13.895Z,100.00
2023-04-18T17:54:41.419Z,100.00
2023-04-18T17:57:09.020Z,100.00
2023-04-18T17:59:37.938Z,99.75
2023-04-18T18:02:05.921Z,100.00
2023-04-18T18:04:33.478Z,100.00
2023-04-18T18:07:01.444Z,100.00
2023-04-18T18:09:28.674Z,100.00
2023-04-18T18:11:57.147Z,100.00
2023-04-18T18:14:24.742Z,100.00
2023-04-18T18:16:52.470Z,100.00
2023-04-18T18:19:21.142Z,100.00
2023-04-18T18:21:49.004Z,100.00
2023-04-18T18:24:16.570Z,100.00
2023-04-18T18:26:44.594Z,100.00
2023-04-18T18:40:32.613Z,100.00
2023-04-18T18:43:01.075Z,100.00
2023-04-18T18:45:28.572Z,100.00
2023-04-18T18:47:56.315Z,100.00
2023-04-18T18:50:24.601Z,100.00
2023-04-18T18:52:52.604Z,100.00
2023-04-18T18:55:20.107Z,100.00
2023-04-18T18:57:48.162Z,100.00
2023-04-18T19:00:16.648Z,100.00
2023-04-18T19:02:46.623Z,100.00
2023-04-18T19:05:14.241Z,100.00
2023-04-18T19:07:42.694Z,100.00
2023-04-18T19:10:10.978Z,100.00
2023-04-18T19:12:38.716Z,100.00
2023-04-18T19:15:07.970Z,100.00
2023-04-18T19:17:36.052Z,100.00
2023-04-18T19:20:03.889Z,100.00
2023-04-18T19:22:31.903Z,100.00
2023-04-18T19:25:01.200Z,100.00
2023-04-18T19:27:29.136Z,100.00
2023-04-18T19:29:56.505Z,100.00
2023-04-18T19:32:24.533Z,100.00
2023-04-18T19:34:53.374Z,100.00
2023-04-18T19:37:21.383Z,100.00
2023-04-18T19:39:52.095Z,100.00
2023-04-18T19:42:20.773Z,100.00
2023-04-18T19:44:48.324Z,100.00
2023-04-18T19:47:16.104Z,100.00
2023-04-18T19:49:44.738Z,100.00
2023-04-18T19:52:12.651Z,100.00
2023-04-18T19:54:40.165Z,100.00
2023-04-18T19:57:08.366Z,100.00
2023-04-18T19:59:36.033Z,100.00
2023-04-18T20:02:05.912Z,100.00
2023-04-18T20:04:37.401Z,100.00
2023-04-18T20:07:05.898Z,100.00
2023-04-18T20:09:36.109Z,100.00
2023-04-18T20:12:04.065Z,100.00
2023-04-18T20:14:32.540Z,100.00
2023-04-18T20:17:00.502Z,100.00
2023-04-18T20:19:29.980Z,100.00
2023-04-18T20:21:57.906Z,100.00
2023-04-18T20:24:28.399Z,100.00
2023-04-18T20:26:59.642Z,100.00
2023-04-18T20:29:27.099Z,100.00
2023-04-18T20:31:54.930Z,100.00
2023-04-18T20:34:22.475Z,100.00
2023-04-18T20:36:52.700Z,100.00
2023-04-18T20:39:23.205Z,100.00
2023-04-18T20:41:51.627Z,100.00
2023-04-18T20:44:22.227Z,100.00
2023-04-18T20:46:52.283Z,100.00
2023-04-18T20:49:19.991Z,100.00
2023-04-18T20:51:50.536Z,100.00
2023-04-18T20:54:18.083Z,100.00
2023-04-18T20:56:46.100Z,100.00
2023-04-18T20:59:13.557Z,100.00
2023-04-18T21:01:41.513Z,100.00
2023-04-18T21:04:09.030Z,100.00
2023-04-18T21:06:36.953Z,100.00
2023-04-18T21:09:04.436Z,100.00
2023-04-18T21:11:32.265Z,100.00
2023-04-18T21:13:59.770Z,100.00
2023-04-18T21:16:27.791Z,100.00
2023-04-18T21:18:55.518Z,100.00
2023-04-18T21:21:23.294Z,100.00
2023-04-18T21:23:50.885Z,100.00
2023-04-18T21:26:19.137Z,100.00
2023-04-18T21:28:53.600Z,100.00
2023-04-18T21:31:21.313Z,100.00
2023-04-18T21:33:52.328Z,100.00
2023-04-18T21:36:20.349Z,100.00
2023-04-18T21:38:47.804Z,100.00
2023-04-18T21:41:17.078Z,100.00
2023-04-18T21:43:44.593Z,100.00
2023-04-18T21:46:12.853Z,100.00
2023-04-18T21:48:41.121Z,100.00
2023-04-18T21:51:10.583Z,100.00
2023-04-18T21:53:39.132Z,100.00
2023-04-18T21:56:09.745Z,100.00
2023-04-18T21:58:39.478Z,100.00
2023-04-18T22:01:07.359Z,100.00
2023-04-18T22:03:35.210Z,100.00
2023-04-18T22:06:03.065Z,100.00
2023-04-18T22:08:31.299Z,100.00
2023-04-18T22:11:00.490Z,100.00
2023-04-18T22:13:34.901Z,100.00
2023-04-18T22:16:03.756Z,100.00
2023-04-18T22:18:34.145Z,100.00
2023-04-18T22:21:03.559Z,100.00
2023-04-18T22:23:30.991Z,100.00
2023-04-18T22:26:01.799Z,100.00
2023-04-18T22:28:29.450Z,100.00
2023-04-18T22:30:57.309Z,100.00
2023-04-18T22:33:24.892Z,100.00
2023-04-18T22:35:52.858Z,100.00
2023-04-18T22:38:20.130Z,100.00
2023-04-18T22:40:47.770Z,100.00
2023-04-18T22:43:14.926Z,100.00
2023-04-18T22:45:42.453Z,100.00
2023-04-18T22:48:12.416Z,100.00
2023-04-18T22:50:44.883Z,100.00
2023-04-18T22:53:12.475Z,100.00
2023-04-18T22:55:44.131Z,100.00
2023-04-18T22:58:12.080Z,100.00
2023-04-18T23:00:39.792Z,100.00
2023-04-18T23:03:07.253Z,100.00
2023-04-18T23:05:35.543Z,100.00
2023-04-18T23:08:02.894Z,100.00
2023-04-18T23:10:30.520Z,100.00
2023-04-18T23:12:57.993Z,100.00
2023-04-18T23:15:26.501Z,100.00
2023-04-18T23:17:54.378Z,100.00
2023-04-18T23:20:22.392Z,100.00
2023-04-18T23:35:04.301Z,100.00
2023-04-18T23:37:32.039Z,100.00
2023-04-18T23:40:02.786Z,100.00
2023-04-18T23:42:30.388Z,100.00
2023-04-18T23:44:59.086Z,100.00
2023-04-18T23:47:26.690Z,100.00
2023-04-18T23:49:53.945Z,100.00
2023-04-18T23:52:21.528Z,100.00
2023-04-18T23:54:51.986Z,100.00
2023-04-18T23:57:22.640Z,100.00
2023-04-18T23:59:49.837Z,100.00
